sensor_id;sensor_type;location;lat;lon;timestamp;pressure;altitude;pressure_sealevel;temperature;humidity
53689;BME280;39583;54.682;30.662;2023-11-19T00:01:35;100357.72;;;-2.80;71.15
53689;BME280;39583;54.682;30.662;2023-11-19T00:04:04;100354.00;;;-2.78;71.04
53689;BME280;39583;54.682;30.662;2023-11-19T00:06:33;100350.28;;;-2.75;71.26
53689;BME280;39583;54.682;30.662;2023-11-19T00:09:01;100342.00;;;-2.82;71.01
53689;BME280;39583;54.682;30.662;2023-11-19T00:11:41;100348.00;;;-2.80;70.90
53689;BME280;39583;54.682;30.662;2023-11-19T00:14:20;100354.13;;;-2.79;70.89
53689;BME280;39583;54.682;30.662;2023-11-19T00:16:48;100344.41;;;-2.79;70.80
53689;BME280;39583;54.682;30.662;2023-11-19T00:19:19;100341.78;;;-2.79;70.69
53689;BME280;39583;54.682;30.662;2023-11-19T00:21:47;100348.84;;;-2.79;70.87
53689;BME280;39583;54.682;30.662;2023-11-19T00:24:15;100349.09;;;-2.82;70.84
53689;BME280;39583;54.682;30.662;2023-11-19T00:26:46;100350.16;;;-2.85;70.90
53689;BME280;39583;54.682;30.662;2023-11-19T00:29:14;100349.50;;;-2.88;70.55
53689;BME280;39583;54.682;30.662;2023-11-19T00:31:47;100345.09;;;-2.88;70.73
53689;BME280;39583;54.682;30.662;2023-11-19T00:34:15;100343.09;;;-2.84;70.70
53689;BME280;39583;54.682;30.662;2023-11-19T00:36:43;100313.53;;;-3.01;70.87
53689;BME280;39583;54.682;30.662;2023-11-19T00:39:13;100333.38;;;-2.84;70.61
53689;BME280;39583;54.682;30.662;2023-11-19T00:41:43;100333.50;;;-2.85;70.79
53689;BME280;39583;54.682;30.662;2023-11-19T00:44:10;100328.13;;;-2.84;70.90
53689;BME280;39583;54.682;30.662;2023-11-19T00:46:38;100324.53;;;-2.83;71.04
53689;BME280;39583;54.682;30.662;2023-11-19T00:49:07;100272.63;;;-3.17;70.67
53689;BME280;39583;54.682;30.662;2023-11-19T00:51:35;100309.03;;;-2.87;71.10
53689;BME280;39583;54.682;30.662;2023-11-19T00:54:03;100325.13;;;-2.79;71.08
53689;BME280;39583;54.682;30.662;2023-11-19T00:56:32;100285.78;;;-2.93;70.64
53689;BME280;39583;54.682;30.662;2023-11-19T00:59:00;100312.94;;;-2.69;70.94
53689;BME280;39583;54.682;30.662;2023-11-19T01:01:28;100309.25;;;-2.67;70.93
53689;BME280;39583;54.682;30.662;2023-11-19T01:03:57;100307.56;;;-2.68;70.92
53689;BME280;39583;54.682;30.662;2023-11-19T01:06:29;100304.81;;;-2.66;70.74
53689;BME280;39583;54.682;30.662;2023-11-19T01:08:58;100301.34;;;-2.67;70.89
53689;BME280;39583;54.682;30.662;2023-11-19T01:11:26;100292.19;;;-2.74;70.76
53689;BME280;39583;54.682;30.662;2023-11-19T01:13:54;100299.38;;;-2.76;70.81
53689;BME280;39583;54.682;30.662;2023-11-19T01:16:22;100290.25;;;-2.83;70.73
53689;BME280;39583;54.682;30.662;2023-11-19T01:18:50;100296.59;;;-2.85;70.44
53689;BME280;39583;54.682;30.662;2023-11-19T01:21:28;100282.06;;;-2.91;70.59
53689;BME280;39583;54.682;30.662;2023-11-19T01:23:59;100265.88;;;-2.98;70.58
53689;BME280;39583;54.682;30.662;2023-11-19T01:26:28;100255.69;;;-3.02;70.90
53689;BME280;39583;54.682;30.662;2023-11-19T01:28:56;100285.81;;;-2.82;70.76
53689;BME280;39583;54.682;30.662;2023-11-19T01:31:24;100251.97;;;-3.00;70.51
53689;BME280;39583;54.682;30.662;2023-11-19T01:33:53;100278.88;;;-2.83;70.48
53689;BME280;39583;54.682;30.662;2023-11-19T01:36:21;100260.66;;;-2.86;70.58
53689;BME280;39583;54.682;30.662;2023-11-19T01:38:49;100265.59;;;-2.82;70.68
53689;BME280;39583;54.682;30.662;2023-11-19T01:41:17;100259.47;;;-2.82;70.93
53689;BME280;39583;54.682;30.662;2023-11-19T01:43:45;100257.56;;;-2.80;70.77
53689;BME280;39583;54.682;30.662;2023-11-19T01:46:15;100255.16;;;-2.83;70.71
53689;BME280;39583;54.682;30.662;2023-11-19T01:48:45;100256.00;;;-2.83;70.89
53689;BME280;39583;54.682;30.662;2023-11-19T01:51:15;100256.13;;;-2.84;71.01
53689;BME280;39583;54.682;30.662;2023-11-19T01:53:44;100257.78;;;-2.83;71.08
53689;BME280;39583;54.682;30.662;2023-11-19T01:56:14;100245.47;;;-2.83;71.27
53689;BME280;39583;54.682;30.662;2023-11-19T01:58:44;100248.09;;;-2.83;70.87
53689;BME280;39583;54.682;30.662;2023-11-19T02:01:14;100244.63;;;-2.83;71.46
53689;BME280;39583;54.682;30.662;2023-11-19T02:03:43;100250.22;;;-2.88;71.12
53689;BME280;39583;54.682;30.662;2023-11-19T02:06:13;100248.88;;;-2.93;71.38
53689;BME280;39583;54.682;30.662;2023-11-19T02:08:42;100239.31;;;-2.94;71.35
53689;BME280;39583;54.682;30.662;2023-11-19T02:11:11;100239.44;;;-2.96;71.73
53689;BME280;39583;54.682;30.662;2023-11-19T02:13:39;100232.59;;;-2.99;71.86
53689;BME280;39583;54.682;30.662;2023-11-19T02:16:10;100228.38;;;-3.01;71.75
53689;BME280;39583;54.682;30.662;2023-11-19T02:18:39;100220.59;;;-3.03;71.97
53689;BME280;39583;54.682;30.662;2023-11-19T02:21:07;100216.50;;;-3.07;71.79
53689;BME280;39583;54.682;30.662;2023-11-19T02:23:37;100227.53;;;-3.02;71.77
53689;BME280;39583;54.682;30.662;2023-11-19T02:28:42;100217.50;;;-2.97;71.86
53689;BME280;39583;54.682;30.662;2023-11-19T02:31:11;100184.03;;;-3.18;71.80
53689;BME280;39583;54.682;30.662;2023-11-19T02:33:39;100224.69;;;-2.99;71.79
53689;BME280;39583;54.682;30.662;2023-11-19T02:36:08;100223.94;;;-3.01;71.83
53689;BME280;39583;54.682;30.662;2023-11-19T02:38:36;100225.00;;;-3.03;72.04
53689;BME280;39583;54.682;30.662;2023-11-19T02:41:06;100220.81;;;-3.06;71.92
53689;BME280;39583;54.682;30.662;2023-11-19T02:43:37;100219.97;;;-3.06;71.94
53689;BME280;39583;54.682;30.662;2023-11-19T02:46:05;100219.88;;;-3.05;72.01
53689;BME280;39583;54.682;30.662;2023-11-19T02:48:39;100220.47;;;-3.01;72.18
53689;BME280;39583;54.682;30.662;2023-11-19T02:51:08;100219.50;;;-3.00;72.25
53689;BME280;39583;54.682;30.662;2023-11-19T02:53:38;100224.28;;;-3.05;71.90
53689;BME280;39583;54.682;30.662;2023-11-19T02:56:08;100221.78;;;-3.07;72.09
53689;BME280;39583;54.682;30.662;2023-11-19T02:58:56;100228.25;;;-3.11;71.94
53689;BME280;39583;54.682;30.662;2023-11-19T03:01:25;100233.63;;;-3.12;72.14
53689;BME280;39583;54.682;30.662;2023-11-19T03:04:00;100217.91;;;-3.14;72.30
53689;BME280;39583;54.682;30.662;2023-11-19T03:06:30;100151.69;;;-3.56;72.06
53689;BME280;39583;54.682;30.662;2023-11-19T03:08:59;100202.69;;;-3.21;72.33
53689;BME280;39583;54.682;30.662;2023-11-19T03:11:33;100207.84;;;-3.20;72.29
53689;BME280;39583;54.682;30.662;2023-11-19T03:14:01;100202.81;;;-3.23;72.19
53689;BME280;39583;54.682;30.662;2023-11-19T03:16:30;100174.47;;;-3.43;72.51
53689;BME280;39583;54.682;30.662;2023-11-19T03:18:58;100214.06;;;-3.21;72.09
53689;BME280;39583;54.682;30.662;2023-11-19T03:21:29;100174.47;;;-3.43;71.96
53689;BME280;39583;54.682;30.662;2023-11-19T03:23:58;100210.31;;;-3.30;72.31
53689;BME280;39583;54.682;30.662;2023-11-19T03:26:29;100211.50;;;-3.34;72.29
53689;BME280;39583;54.682;30.662;2023-11-19T03:28:57;100208.75;;;-3.32;72.13
53689;BME280;39583;54.682;30.662;2023-11-19T03:31:26;100215.81;;;-3.33;72.08
53689;BME280;39583;54.682;30.662;2023-11-19T03:33:54;100210.44;;;-3.31;72.24
53689;BME280;39583;54.682;30.662;2023-11-19T03:36:31;100209.16;;;-3.25;72.64
53689;BME280;39583;54.682;30.662;2023-11-19T03:39:00;100176.03;;;-3.41;72.38
53689;BME280;39583;54.682;30.662;2023-11-19T03:41:28;100189.59;;;-3.34;72.53
53689;BME280;39583;54.682;30.662;2023-11-19T03:44:08;100211.16;;;-3.29;72.22
53689;BME280;39583;54.682;30.662;2023-11-19T03:46:36;100198.22;;;-3.32;72.41
53689;BME280;39583;54.682;30.662;2023-11-19T03:49:06;100189.47;;;-3.33;72.32
53689;BME280;39583;54.682;30.662;2023-11-19T03:51:34;100187.41;;;-3.40;72.27
53689;BME280;39583;54.682;30.662;2023-11-19T03:54:02;100183.19;;;-3.43;72.60
53689;BME280;39583;54.682;30.662;2023-11-19T03:56:31;100183.09;;;-3.41;72.09
53689;BME280;39583;54.682;30.662;2023-11-19T03:59:01;100167.75;;;-3.47;72.60
53689;BME280;39583;54.682;30.662;2023-11-19T04:01:31;100181.16;;;-3.50;72.32
53689;BME280;39583;54.682;30.662;2023-11-19T04:04:00;100178.41;;;-3.49;72.45
53689;BME280;39583;54.682;30.662;2023-11-19T04:06:29;100182.84;;;-3.49;72.21
53689;BME280;39583;54.682;30.662;2023-11-19T04:08:57;100150.91;;;-3.69;72.57
53689;BME280;39583;54.682;30.662;2023-11-19T04:11:35;100180.41;;;-3.52;72.32
53689;BME280;39583;54.682;30.662;2023-11-19T04:14:04;100103.75;;;-3.96;72.31
53689;BME280;39583;54.682;30.662;2023-11-19T04:16:32;100116.88;;;-3.83;72.50
53689;BME280;39583;54.682;30.662;2023-11-19T04:19:01;100081.69;;;-4.06;72.68
53689;BME280;39583;54.682;30.662;2023-11-19T04:21:29;100183.78;;;-3.50;72.69
53689;BME280;39583;54.682;30.662;2023-11-19T04:23:57;100103.38;;;-4.02;72.48
53689;BME280;39583;54.682;30.662;2023-11-19T04:26:25;100172.41;;;-3.51;72.57
53689;BME280;39583;54.682;30.662;2023-11-19T04:28:57;100174.81;;;-3.48;72.68
53689;BME280;39583;54.682;30.662;2023-11-19T04:31:29;100156.56;;;-3.62;72.56
53689;BME280;39583;54.682;30.662;2023-11-19T04:34:00;100189.91;;;-3.39;72.68
53689;BME280;39583;54.682;30.662;2023-11-19T04:36:28;100182.75;;;-3.37;72.91
53689;BME280;39583;54.682;30.662;2023-11-19T04:38:57;100175.19;;;-3.41;72.74
53689;BME280;39583;54.682;30.662;2023-11-19T04:41:27;100162.97;;;-3.42;72.97
53689;BME280;39583;54.682;30.662;2023-11-19T04:43:55;100154.72;;;-3.49;72.76
53689;BME280;39583;54.682;30.662;2023-11-19T04:46:23;100165.63;;;-3.42;72.77
53689;BME280;39583;54.682;30.662;2023-11-19T04:48:51;100167.28;;;-3.41;72.63
53689;BME280;39583;54.682;30.662;2023-11-19T04:51:19;100170.16;;;-3.44;72.41
53689;BME280;39583;54.682;30.662;2023-11-19T04:53:47;100160.81;;;-3.48;72.40
53689;BME280;39583;54.682;30.662;2023-11-19T04:56:15;100161.97;;;-3.52;72.35
53689;BME280;39583;54.682;30.662;2023-11-19T04:58:43;100156.22;;;-3.58;72.41
53689;BME280;39583;54.682;30.662;2023-11-19T05:01:16;100160.41;;;-3.55;72.18
53689;BME280;39583;54.682;30.662;2023-11-19T05:03:45;100154.91;;;-3.52;72.40
53689;BME280;39583;54.682;30.662;2023-11-19T05:06:14;100150.72;;;-3.54;72.37
53689;BME280;39583;54.682;30.662;2023-11-19T05:08:43;100158.19;;;-3.48;72.44
53689;BME280;39583;54.682;30.662;2023-11-19T05:11:12;100153.34;;;-3.54;72.43
53689;BME280;39583;54.682;30.662;2023-11-19T05:13:45;100151.91;;;-3.59;72.40
53689;BME280;39583;54.682;30.662;2023-11-19T05:16:14;100131.16;;;-3.74;72.05
53689;BME280;39583;54.682;30.662;2023-11-19T05:18:42;100156.34;;;-3.59;72.34
53689;BME280;39583;54.682;30.662;2023-11-19T05:21:10;100155.63;;;-3.61;72.20
53689;BME280;39583;54.682;30.662;2023-11-19T05:23:38;100114.47;;;-3.86;72.08
53689;BME280;39583;54.682;30.662;2023-11-19T05:26:06;100144.69;;;-3.68;72.41
53689;BME280;39583;54.682;30.662;2023-11-19T05:28:34;100148.16;;;-3.67;72.22
53689;BME280;39583;54.682;30.662;2023-11-19T05:31:02;100131.25;;;-3.76;72.25
53689;BME280;39583;54.682;30.662;2023-11-19T05:33:30;100127.28;;;-3.81;72.14
53689;BME280;39583;54.682;30.662;2023-11-19T05:35:58;100140.25;;;-3.67;72.18
53689;BME280;39583;54.682;30.662;2023-11-19T05:38:27;100137.75;;;-3.69;72.38
53689;BME280;39583;54.682;30.662;2023-11-19T05:40:56;100059.03;;;-4.20;72.29
53689;BME280;39583;54.682;30.662;2023-11-19T05:43:24;100134.03;;;-3.66;72.38
53689;BME280;39583;54.682;30.662;2023-11-19T05:45:52;100122.06;;;-3.70;72.43
53689;BME280;39583;54.682;30.662;2023-11-19T05:48:21;100138.47;;;-3.67;72.44
53689;BME280;39583;54.682;30.662;2023-11-19T05:50:48;100138.09;;;-3.73;72.37
53689;BME280;39583;54.682;30.662;2023-11-19T05:53:17;100133.25;;;-3.79;72.20
53689;BME280;39583;54.682;30.662;2023-11-19T05:55:47;100132.53;;;-3.81;72.57
53689;BME280;39583;54.682;30.662;2023-11-19T05:58:37;100131.47;;;-3.79;72.42
53689;BME280;39583;54.682;30.662;2023-11-19T06:01:07;100040.78;;;-4.34;72.58
53689;BME280;39583;54.682;30.662;2023-11-19T06:03:35;100124.75;;;-3.83;72.69
53689;BME280;39583;54.682;30.662;2023-11-19T06:06:05;100113.22;;;-3.93;72.84
53689;BME280;39583;54.682;30.662;2023-11-19T06:08:34;100124.31;;;-3.77;72.98
53689;BME280;39583;54.682;30.662;2023-11-19T06:11:03;100120.75;;;-3.76;72.84
53689;BME280;39583;54.682;30.662;2023-11-19T06:13:30;100115.59;;;-3.77;72.76
53689;BME280;39583;54.682;30.662;2023-11-19T06:15:59;100117.59;;;-3.81;72.94
53689;BME280;39583;54.682;30.662;2023-11-19T06:18:27;100120.44;;;-3.84;72.96
53689;BME280;39583;54.682;30.662;2023-11-19T06:20:55;100120.78;;;-3.89;72.99
53689;BME280;39583;54.682;30.662;2023-11-19T06:23:23;100119.84;;;-3.88;72.73
53689;BME280;39583;54.682;30.662;2023-11-19T06:25:51;100123.53;;;-3.90;72.92
53689;BME280;39583;54.682;30.662;2023-11-19T06:28:19;100123.00;;;-3.95;72.75
53689;BME280;39583;54.682;30.662;2023-11-19T06:30:49;100124.09;;;-3.98;73.15
53689;BME280;39583;54.682;30.662;2023-11-19T06:33:18;100125.66;;;-3.95;73.16
53689;BME280;39583;54.682;30.662;2023-11-19T06:35:47;100116.81;;;-3.94;73.36
53689;BME280;39583;54.682;30.662;2023-11-19T06:38:15;100120.16;;;-3.92;73.05
53689;BME280;39583;54.682;30.662;2023-11-19T06:40:43;100120.69;;;-3.87;73.34
53689;BME280;39583;54.682;30.662;2023-11-19T06:43:11;100114.56;;;-3.88;73.52
53689;BME280;39583;54.682;30.662;2023-11-19T06:45:39;100115.00;;;-3.94;73.08
53689;BME280;39583;54.682;30.662;2023-11-19T06:48:07;100122.41;;;-3.99;73.20
53689;BME280;39583;54.682;30.662;2023-11-19T06:50:35;100118.94;;;-3.99;73.58
53689;BME280;39583;54.682;30.662;2023-11-19T06:53:03;100117.25;;;-4.00;73.60
53689;BME280;39583;54.682;30.662;2023-11-19T06:55:33;100119.16;;;-4.02;73.28
53689;BME280;39583;54.682;30.662;2023-11-19T06:58:02;100120.63;;;-3.98;73.65
53689;BME280;39583;54.682;30.662;2023-11-19T07:00:30;100128.16;;;-3.94;73.60
53689;BME280;39583;54.682;30.662;2023-11-19T07:03:00;100122.69;;;-3.91;73.80
53689;BME280;39583;54.682;30.662;2023-11-19T07:05:31;100126.47;;;-3.95;73.85
53689;BME280;39583;54.682;30.662;2023-11-19T07:08:00;100123.97;;;-3.96;73.63
53689;BME280;39583;54.682;30.662;2023-11-19T07:10:29;100124.91;;;-3.97;73.75
53689;BME280;39583;54.682;30.662;2023-11-19T07:12:57;100121.69;;;-4.01;74.12
53689;BME280;39583;54.682;30.662;2023-11-19T07:15:26;100130.41;;;-4.00;73.89
53689;BME280;39583;54.682;30.662;2023-11-19T07:17:54;100127.66;;;-3.99;73.76
53689;BME280;39583;54.682;30.662;2023-11-19T07:20:25;100133.88;;;-4.00;74.31
53689;BME280;39583;54.682;30.662;2023-11-19T07:22:54;100130.78;;;-3.94;74.34
53689;BME280;39583;54.682;30.662;2023-11-19T07:25:24;100129.63;;;-3.90;74.13
53689;BME280;39583;54.682;30.662;2023-11-19T07:27:52;100128.03;;;-3.92;74.23
53689;BME280;39583;54.682;30.662;2023-11-19T07:30:20;100126.91;;;-3.88;74.56
53689;BME280;39583;54.682;30.662;2023-11-19T07:32:48;100123.53;;;-3.90;74.78
53689;BME280;39583;54.682;30.662;2023-11-19T07:35:16;100128.47;;;-3.86;74.88
53689;BME280;39583;54.682;30.662;2023-11-19T07:37:44;100112.56;;;-3.84;75.13
53689;BME280;39583;54.682;30.662;2023-11-19T07:40:13;100123.81;;;-3.82;75.09
53689;BME280;39583;54.682;30.662;2023-11-19T07:42:41;100119.25;;;-3.80;75.23
53689;BME280;39583;54.682;30.662;2023-11-19T07:45:09;100124.53;;;-3.80;74.91
53689;BME280;39583;54.682;30.662;2023-11-19T07:47:36;100126.44;;;-3.82;75.19
53689;BME280;39583;54.682;30.662;2023-11-19T07:50:05;100126.31;;;-3.80;75.47
53689;BME280;39583;54.682;30.662;2023-11-19T07:52:33;100121.06;;;-3.80;75.59
53689;BME280;39583;54.682;30.662;2023-11-19T07:55:01;100122.91;;;-3.70;75.36
53689;BME280;39583;54.682;30.662;2023-11-19T07:57:29;100132.03;;;-3.63;75.41
53689;BME280;39583;54.682;30.662;2023-11-19T07:59:58;100129.41;;;-3.63;75.55
53689;BME280;39583;54.682;30.662;2023-11-19T08:02:25;100131.19;;;-3.63;75.61
53689;BME280;39583;54.682;30.662;2023-11-19T08:04:53;100129.59;;;-3.66;75.62
53689;BME280;39583;54.682;30.662;2023-11-19T08:07:22;100128.16;;;-3.70;75.67
53689;BME280;39583;54.682;30.662;2023-11-19T08:09:50;100126.97;;;-3.66;76.08
53689;BME280;39583;54.682;30.662;2023-11-19T08:12:17;100125.59;;;-3.59;75.82
53689;BME280;39583;54.682;30.662;2023-11-19T08:14:45;100124.41;;;-3.54;75.71
53689;BME280;39583;54.682;30.662;2023-11-19T08:17:12;100120.94;;;-3.55;75.70
53689;BME280;39583;54.682;30.662;2023-11-19T08:19:40;100117.69;;;-3.59;76.00
53689;BME280;39583;54.682;30.662;2023-11-19T08:22:11;100120.44;;;-3.60;75.96
53689;BME280;39583;54.682;30.662;2023-11-19T08:24:42;100085.88;;;-3.79;76.23
53689;BME280;39583;54.682;30.662;2023-11-19T08:27:15;100113.38;;;-3.60;76.34
53689;BME280;39583;54.682;30.662;2023-11-19T08:29:45;100116.00;;;-3.60;76.35
53689;BME280;39583;54.682;30.662;2023-11-19T08:32:13;100111.81;;;-3.62;76.61
53689;BME280;39583;54.682;30.662;2023-11-19T08:34:41;100113.63;;;-3.63;76.53
53689;BME280;39583;54.682;30.662;2023-11-19T08:37:12;100111.09;;;-3.64;76.96
53689;BME280;39583;54.682;30.662;2023-11-19T08:39:41;100085.78;;;-3.78;76.88
53689;BME280;39583;54.682;30.662;2023-11-19T08:42:10;100099.81;;;-3.66;76.95
53689;BME280;39583;54.682;30.662;2023-11-19T08:44:38;100094.44;;;-3.65;77.07
53689;BME280;39583;54.682;30.662;2023-11-19T08:47:09;100100.66;;;-3.66;77.30
53689;BME280;39583;54.682;30.662;2023-11-19T08:49:39;100097.81;;;-3.63;77.14
53689;BME280;39583;54.682;30.662;2023-11-19T08:52:12;100093.16;;;-3.59;77.08
53689;BME280;39583;54.682;30.662;2023-11-19T08:54:44;100094.00;;;-3.59;77.23
53689;BME280;39583;54.682;30.662;2023-11-19T08:57:11;100087.19;;;-3.61;77.26
53689;BME280;39583;54.682;30.662;2023-11-19T08:59:39;100084.31;;;-3.58;77.31
53689;BME280;39583;54.682;30.662;2023-11-19T09:02:07;100085.03;;;-3.56;77.23
53689;BME280;39583;54.682;30.662;2023-11-19T09:04:35;100086.59;;;-3.53;77.68
53689;BME280;39583;54.682;30.662;2023-11-19T09:07:03;100080.75;;;-3.46;77.33
53689;BME280;39583;54.682;30.662;2023-11-19T09:09:31;100082.31;;;-3.43;77.26
53689;BME280;39583;54.682;30.662;2023-11-19T09:12:03;100074.41;;;-3.43;77.67
53689;BME280;39583;54.682;30.662;2023-11-19T09:14:31;100065.09;;;-3.47;77.39
53689;BME280;39583;54.682;30.662;2023-11-19T09:16:59;100063.31;;;-3.36;77.63
53689;BME280;39583;54.682;30.662;2023-11-19T09:19:27;100058.19;;;-3.37;77.30
53689;BME280;39583;54.682;30.662;2023-11-19T09:21:54;100060.22;;;-3.30;77.66
53689;BME280;39583;54.682;30.662;2023-11-19T09:24:22;100062.38;;;-3.23;77.24
53689;BME280;39583;54.682;30.662;2023-11-19T09:26:51;100059.16;;;-3.16;77.57
53689;BME280;39583;54.682;30.662;2023-11-19T09:29:19;100048.97;;;-3.20;77.38
53689;BME280;39583;54.682;30.662;2023-11-19T09:31:47;100038.91;;;-3.27;77.27
53689;BME280;39583;54.682;30.662;2023-11-19T09:34:14;100049.94;;;-3.21;77.71
53689;BME280;39583;54.682;30.662;2023-11-19T09:36:42;100061.09;;;-3.07;77.63
53689;BME280;39583;54.682;30.662;2023-11-19T09:39:11;100046.59;;;-3.01;77.57
53689;BME280;39583;54.682;30.662;2023-11-19T09:41:42;100053.53;;;-3.00;77.14
53689;BME280;39583;54.682;30.662;2023-11-19T09:44:09;100045.41;;;-2.97;77.18
53689;BME280;39583;54.682;30.662;2023-11-19T09:46:41;100039.06;;;-2.94;77.31
53689;BME280;39583;54.682;30.662;2023-11-19T09:49:10;100036.88;;;-2.78;77.51
53689;BME280;39583;54.682;30.662;2023-11-19T09:51:38;100037.47;;;-2.63;77.70
53689;BME280;39583;54.682;30.662;2023-11-19T09:54:05;100035.31;;;-2.58;77.28
53689;BME280;39583;54.682;30.662;2023-11-19T09:56:35;100030.19;;;-2.60;77.03
53689;BME280;39583;54.682;30.662;2023-11-19T09:59:05;100020.22;;;-2.68;76.98
53689;BME280;39583;54.682;30.662;2023-11-19T10:01:32;100024.66;;;-2.68;77.06
53689;BME280;39583;54.682;30.662;2023-11-19T10:04:01;100020.22;;;-2.68;77.13
53689;BME280;39583;54.682;30.662;2023-11-19T10:06:29;100017.94;;;-2.61;77.34
53689;BME280;39583;54.682;30.662;2023-11-19T10:08:57;100001.78;;;-2.68;77.39
53689;BME280;39583;54.682;30.662;2023-11-19T10:11:24;100019.03;;;-2.63;77.27
53689;BME280;39583;54.682;30.662;2023-11-19T10:13:53;100012.66;;;-2.61;77.54
53689;BME280;39583;54.682;30.662;2023-11-19T10:16:28;99990.84;;;-2.63;77.18
53689;BME280;39583;54.682;30.662;2023-11-19T10:18:57;99976.53;;;-2.81;77.41
53689;BME280;39583;54.682;30.662;2023-11-19T10:21:24;100003.47;;;-2.78;77.16
53689;BME280;39583;54.682;30.662;2023-11-19T10:23:55;99992.72;;;-2.86;77.28
53689;BME280;39583;54.682;30.662;2023-11-19T10:26:27;99997.03;;;-2.85;77.85
53689;BME280;39583;54.682;30.662;2023-11-19T10:28:56;99994.84;;;-2.91;77.33
53689;BME280;39583;54.682;30.662;2023-11-19T10:31:23;99996.28;;;-2.87;77.48
53689;BME280;39583;54.682;30.662;2023-11-19T10:33:52;99990.06;;;-2.86;77.65
53689;BME280;39583;54.682;30.662;2023-11-19T10:36:20;99991.38;;;-2.91;76.93
53689;BME280;39583;54.682;30.662;2023-11-19T10:38:54;99987.19;;;-2.94;77.23
53689;BME280;39583;54.682;30.662;2023-11-19T10:41:32;99981.22;;;-2.96;77.36
53689;BME280;39583;54.682;30.662;2023-11-19T10:44:00;99989.13;;;-2.96;77.23
53689;BME280;39583;54.682;30.662;2023-11-19T10:46:38;99987.78;;;-3.02;77.15
53689;BME280;39583;54.682;30.662;2023-11-19T10:49:09;99985.28;;;-3.03;77.17
53689;BME280;39583;54.682;30.662;2023-11-19T10:51:41;99980.59;;;-3.00;77.24
53689;BME280;39583;54.682;30.662;2023-11-19T10:54:15;99971.16;;;-3.02;76.84
53689;BME280;39583;54.682;30.662;2023-11-19T10:56:55;99972.94;;;-3.03;77.44
53689;BME280;39583;54.682;30.662;2023-11-19T10:59:29;99967.94;;;-3.06;76.97
53689;BME280;39583;54.682;30.662;2023-11-19T11:02:03;99976.78;;;-3.07;76.90
53689;BME280;39583;54.682;30.662;2023-11-19T11:04:39;99952.25;;;-3.07;77.21
53689;BME280;39583;54.682;30.662;2023-11-19T11:07:09;99960.00;;;-2.94;76.75
53689;BME280;39583;54.682;30.662;2023-11-19T11:09:37;99969.00;;;-2.97;76.45
53689;BME280;39583;54.682;30.662;2023-11-19T11:12:06;99957.38;;;-2.94;76.64
53689;BME280;39583;54.682;30.662;2023-11-19T11:14:37;99953.66;;;-2.92;76.90
53689;BME280;39583;54.682;30.662;2023-11-19T11:17:05;99947.91;;;-2.86;76.79
53689;BME280;39583;54.682;30.662;2023-11-19T11:19:36;99942.41;;;-2.83;76.79
53689;BME280;39583;54.682;30.662;2023-11-19T11:22:05;99919.06;;;-2.99;76.54
53689;BME280;39583;54.682;30.662;2023-11-19T11:24:40;99940.09;;;-2.87;76.17
53689;BME280;39583;54.682;30.662;2023-11-19T11:34:00;99937.28;;;-3.18;76.28
53689;BME280;39583;54.682;30.662;2023-11-19T11:36:02;99933.56;;;-3.15;76.57
53689;BME280;39583;54.682;30.662;2023-11-19T11:38:36;99927.59;;;-3.17;76.59
53689;BME280;39583;54.682;30.662;2023-11-19T11:43:50;99925.19;;;-3.20;76.53
53689;BME280;39583;54.682;30.662;2023-11-19T11:49:07;99918.00;;;-3.18;76.33
53689;BME280;39583;54.682;30.662;2023-11-19T11:57:11;99907.13;;;-3.25;76.63
53689;BME280;39583;54.682;30.662;2023-11-19T12:02:10;99902.34;;;-3.31;76.36
53689;BME280;39583;54.682;30.662;2023-11-19T12:04:42;99913.44;;;-3.28;76.81
53689;BME280;39583;54.682;30.662;2023-11-19T12:07:16;99883.78;;;-3.30;76.82
53689;BME280;39583;54.682;30.662;2023-11-19T12:09:53;99904.84;;;-3.18;76.71
53689;BME280;39583;54.682;30.662;2023-11-19T12:12:26;99908.19;;;-3.16;76.93
53689;BME280;39583;54.682;30.662;2023-11-19T12:15:10;99905.53;;;-3.16;76.90
53689;BME280;39583;54.682;30.662;2023-11-19T12:20:07;99898.72;;;-3.19;76.61
53689;BME280;39583;54.682;30.662;2023-11-19T12:22:40;99887.38;;;-3.19;76.56
53689;BME280;39583;54.682;30.662;2023-11-19T12:25:09;99885.69;;;-3.20;76.47
53689;BME280;39583;54.682;30.662;2023-11-19T12:27:40;99871.44;;;-3.29;76.87
53689;BME280;39583;54.682;30.662;2023-11-19T12:30:08;99880.53;;;-3.22;76.46
53689;BME280;39583;54.682;30.662;2023-11-19T12:32:42;99876.13;;;-3.21;76.74
53689;BME280;39583;54.682;30.662;2023-11-19T12:35:11;99867.38;;;-3.22;76.33
53689;BME280;39583;54.682;30.662;2023-11-19T12:37:46;99867.63;;;-3.25;76.41
53689;BME280;39583;54.682;30.662;2023-11-19T12:40:19;99865.09;;;-3.27;76.43
53689;BME280;39583;54.682;30.662;2023-11-19T12:42:54;99869.06;;;-3.32;76.45
53689;BME280;39583;54.682;30.662;2023-11-19T12:45:22;99873.03;;;-3.38;76.32
53689;BME280;39583;54.682;30.662;2023-11-19T12:48:08;99866.44;;;-3.32;76.44
53689;BME280;39583;54.682;30.662;2023-11-19T12:50:51;99869.66;;;-3.29;76.57
53689;BME280;39583;54.682;30.662;2023-11-19T12:53:21;99870.28;;;-3.25;76.50
53689;BME280;39583;54.682;30.662;2023-11-19T12:55:50;99867.00;;;-3.29;76.66
53689;BME280;39583;54.682;30.662;2023-11-19T12:58:35;99864.38;;;-3.29;76.17
53689;BME280;39583;54.682;30.662;2023-11-19T13:01:05;99857.81;;;-3.34;76.34
53689;BME280;39583;54.682;30.662;2023-11-19T13:03:34;99871.69;;;-3.32;76.40
53689;BME280;39583;54.682;30.662;2023-11-19T13:06:04;99862.59;;;-3.28;76.46
53689;BME280;39583;54.682;30.662;2023-11-19T13:08:47;99829.34;;;-3.40;76.33
53689;BME280;39583;54.682;30.662;2023-11-19T13:11:35;99863.19;;;-3.24;76.61
53689;BME280;39583;54.682;30.662;2023-11-19T13:14:04;99853.38;;;-3.22;76.79
53689;BME280;39583;54.682;30.662;2023-11-19T13:16:32;99857.09;;;-3.25;76.31
53689;BME280;39583;54.682;30.662;2023-11-19T13:19:00;99850.50;;;-3.31;76.21
53689;BME280;39583;54.682;30.662;2023-11-19T13:21:28;99852.69;;;-3.36;76.56